Time;durP1;ratioP1;P1;durP2;ratioP2;P2;SDS_P1;SDS_P2;PMS_P1;PMS_P2;Temp;Humidity;BMP_temperature;BMP_pressure;BME280_temperature;BME280_humidity;BME280_pressure;Samples;Min_cycle;Max_cycle;Signal;HPM_P1;HPM_P2
2022/05/14 00:00:08;;;;;;;14.63;3.73;;;11.90;99.90;;;;;;5051642;28;19978;-80
2022/05/14 00:02:34;;;;;;;13.70;3.90;;;11.90;99.90;;;;;;5054423;28;20098;-83
2022/05/14 00:05:01;;;;;;;13.40;3.87;;;11.90;99.90;;;;;;5060046;28;20067;-80
2022/05/14 00:07:27;;;;;;;10.73;3.50;;;11.90;99.90;;;;;;5064056;28;20044;-80
2022/05/14 00:09:53;;;;;;;14.23;3.77;;;11.90;99.90;;;;;;5061842;28;20784;-79
2022/05/14 00:15:04;;;;;;;16.98;3.58;;;11.90;99.90;;;;;;5058153;28;20109;-84
2022/05/14 00:17:29;;;;;;;11.63;3.67;;;11.90;99.90;;;;;;5048653;28;20448;-80
2022/05/14 00:19:55;;;;;;;13.83;3.70;;;11.80;99.90;;;;;;5059358;28;20039;-80
2022/05/14 00:22:22;;;;;;;10.37;3.70;;;11.80;99.90;;;;;;5056145;28;20135;-82
2022/05/14 00:24:49;;;;;;;12.37;3.87;;;11.80;99.90;;;;;;5022805;28;20051;-83
2022/05/14 00:27:16;;;;;;;12.80;4.00;;;11.80;99.90;;;;;;5048890;28;20044;-81
2022/05/14 00:29:41;;;;;;;12.43;3.70;;;11.80;99.90;;;;;;5034486;28;20044;-78
2022/05/14 00:32:07;;;;;;;9.00;3.60;;;11.90;99.90;;;;;;5065937;28;20046;-81
2022/05/14 00:34:33;;;;;;;15.67;4.30;;;11.90;99.90;;;;;;5057176;28;20495;-80
2022/05/14 00:37:00;;;;;;;12.27;3.80;;;11.90;99.90;;;;;;5055838;28;20036;-79
2022/05/14 00:39:27;;;;;;;11.07;3.90;;;11.90;99.90;;;;;;5053579;28;20040;-80
2022/05/14 00:41:54;;;;;;;12.27;3.70;;;11.90;99.90;;;;;;5061538;28;20044;-81
2022/05/14 00:44:19;;;;;;;14.17;4.27;;;11.90;99.90;;;;;;5057635;28;20123;-79
2022/05/14 00:46:48;;;;;;;12.20;4.10;;;11.90;99.90;;;;;;5056834;28;20482;-88
2022/05/14 00:49:18;;;;;;;16.47;4.13;;;11.80;99.90;;;;;;5047805;28;20486;-80
2022/05/14 00:51:46;;;;;;;16.30;3.60;;;11.80;99.90;;;;;;5060335;28;20091;-80
2022/05/14 00:54:15;;;;;;;14.07;4.07;;;11.80;99.90;;;;;;5052330;28;20146;-82
2022/05/14 00:56:46;;;;;;;13.07;3.50;;;11.80;99.90;;;;;;5060232;28;20533;-80
2022/05/14 00:59:15;;;;;;;10.50;3.40;;;11.80;99.90;;;;;;5043779;28;20102;-84
2022/05/14 01:01:42;;;;;;;16.83;3.37;;;11.90;99.90;;;;;;5048764;28;20059;-81
2022/05/14 01:04:08;;;;;;;12.37;3.40;;;11.90;99.90;;;;;;5064344;28;20052;-79
2022/05/14 01:06:35;;;;;;;17.70;4.17;;;11.90;99.90;;;;;;5054899;28;20048;-79
2022/05/14 01:09:04;;;;;;;17.33;4.10;;;11.90;99.90;;;;;;5060861;28;20041;-80
2022/05/14 01:11:33;;;;;;;13.20;3.70;;;11.90;99.90;;;;;;5043368;28;20036;-79
2022/05/14 01:14:00;;;;;;;13.77;3.63;;;11.90;99.90;;;;;;5058209;28;20047;-80
2022/05/14 01:16:26;;;;;;;12.90;3.97;;;11.90;99.90;;;;;;5061551;28;20635;-83
2022/05/14 01:18:52;;;;;;;14.73;3.33;;;11.90;99.90;;;;;;5043345;28;20515;-84
2022/05/14 01:21:27;;;;;;;16.17;3.70;;;11.90;99.90;;;;;;5045727;28;20087;-79
2022/05/14 01:26:46;;;;;;;13.30;3.20;;;11.90;99.90;;;;;;5054421;28;20044;-83
2022/05/14 01:29:15;;;;;;;14.60;4.10;;;11.90;99.90;;;;;;5043252;28;20533;-79
2022/05/14 01:31:42;;;;;;;13.00;3.60;;;11.90;99.90;;;;;;5041634;28;20114;-80
2022/05/14 01:34:11;;;;;;;17.47;4.27;;;11.90;99.90;;;;;;5059395;28;20123;-79
2022/05/14 01:36:39;;;;;;;16.13;3.77;;;11.90;99.90;;;;;;5036331;28;20039;-79
2022/05/14 01:39:06;;;;;;;12.10;3.90;;;11.90;99.90;;;;;;5056518;28;20436;-79
2022/05/14 01:41:32;;;;;;;12.03;3.63;;;11.90;99.90;;;;;;5058434;28;20044;-84
2022/05/14 01:43:59;;;;;;;15.70;3.83;;;11.90;99.90;;;;;;5043363;28;20519;-80
2022/05/14 01:46:25;;;;;;;16.47;4.17;;;11.90;99.90;;;;;;5057519;28;20036;-79
2022/05/14 01:48:51;;;;;;;14.77;4.80;;;11.90;99.90;;;;;;5060952;28;20135;-82
2022/05/14 01:51:17;;;;;;;13.37;3.80;;;11.80;99.90;;;;;;5042021;28;20128;-80
2022/05/14 01:53:44;;;;;;;21.07;4.63;;;11.90;99.90;;;;;;5058611;28;20057;-79
2022/05/14 01:56:10;;;;;;;10.33;4.10;;;11.90;99.90;;;;;;5017901;28;20468;-79
2022/05/14 01:58:39;;;;;;;16.07;4.20;;;11.90;99.90;;;;;;5066023;28;20060;-84
2022/05/14 02:01:18;;;;;;;12.13;3.80;;;11.90;99.90;;;;;;5046861;28;20051;-83
2022/05/14 02:03:46;;;;;;;17.10;4.40;;;11.90;99.90;;;;;;5039634;28;20094;-80
2022/05/14 02:06:13;;;;;;;14.13;4.10;;;11.90;99.90;;;;;;5043939;28;20440;-80
2022/05/14 02:08:39;;;;;;;13.30;4.17;;;11.80;99.90;;;;;;5063686;28;20036;-80
2022/05/14 02:11:07;;;;;;;10.33;4.10;;;11.80;99.90;;;;;;5038230;28;20048;-81
2022/05/14 02:13:34;;;;;;;12.87;4.40;;;11.70;99.90;;;;;;5054118;28;20049;-81
2022/05/14 02:16:00;;;;;;;13.10;4.30;;;11.70;99.90;;;;;;5038367;28;20042;-80
2022/05/14 02:18:27;;;;;;;15.40;4.30;;;11.70;99.90;;;;;;5043455;28;20486;-80
2022/05/14 02:20:53;;;;;;;15.50;4.50;;;11.60;99.90;;;;;;5042609;28;20107;-85
2022/05/14 02:23:20;;;;;;;17.47;4.47;;;11.60;99.90;;;;;;5021075;28;20124;-83
2022/05/14 02:25:45;;;;;;;20.50;4.73;;;11.50;99.90;;;;;;5034833;28;20055;-79
2022/05/14 02:28:11;;;;;;;14.63;4.10;;;11.50;99.90;;;;;;5046304;28;20047;-80
2022/05/14 02:30:38;;;;;;;16.97;4.23;;;11.50;99.90;;;;;;5046359;28;21518;-81
2022/05/14 02:33:04;;;;;;;14.87;4.50;;;11.40;99.90;;;;;;5063729;28;20136;-83
2022/05/14 02:35:31;;;;;;;15.47;4.47;;;11.40;99.90;;;;;;5043119;28;20048;-80
2022/05/14 02:37:57;;;;;;;13.90;4.30;;;11.30;99.90;;;;;;5056076;28;20048;-79
2022/05/14 02:40:23;;;;;;;11.77;4.47;;;11.30;99.90;;;;;;5044350;28;20477;-82
2022/05/14 02:42:49;;;;;;;17.33;5.13;;;11.20;99.90;;;;;;5058319;28;20059;-81
2022/05/14 02:45:15;;;;;;;16.20;4.67;;;11.20;99.90;;;;;;5036378;28;20123;-80
2022/05/14 02:47:41;;;;;;;16.83;5.00;;;11.10;99.90;;;;;;5047789;28;20072;-80
2022/05/14 02:50:09;;;;;;;14.43;4.73;;;11.10;99.90;;;;;;5060123;28;20684;-80
2022/05/14 02:52:37;;;;;;;19.43;4.77;;;11.10;99.90;;;;;;5034934;28;20125;-80
2022/05/14 02:55:04;;;;;;;20.53;5.70;;;11.10;99.90;;;;;;5038285;28;20048;-83
2022/05/14 02:57:29;;;;;;;16.97;4.67;;;11.00;99.90;;;;;;5057166;28;20045;-80
2022/05/14 02:59:55;;;;;;;13.37;5.20;;;11.00;99.90;;;;;;5067153;28;20066;-80
2022/05/14 03:02:21;;;;;;;18.27;6.13;;;10.90;99.90;;;;;;5052569;28;20043;-81
2022/05/14 03:04:48;;;;;;;16.03;5.40;;;10.90;99.90;;;;;;5065579;28;20040;-80
2022/05/14 03:07:17;;;;;;;17.53;5.63;;;10.90;99.90;;;;;;5064074;28;20534;-80
2022/05/14 03:09:45;;;;;;;23.20;5.77;;;10.90;99.90;;;;;;5067047;28;21497;-82
2022/05/14 03:12:13;;;;;;;15.90;5.17;;;10.80;99.90;;;;;;5047278;28;20047;-81
2022/05/14 03:14:40;;;;;;;22.07;5.90;;;10.80;99.90;;;;;;5043250;28;20512;-80
2022/05/14 03:17:07;;;;;;;26.80;7.07;;;10.70;99.90;;;;;;5065026;28;20036;-80
2022/05/14 03:19:33;;;;;;;17.30;5.40;;;10.70;99.90;;;;;;5045666;28;20118;-80
2022/05/14 03:21:59;;;;;;;20.43;6.43;;;10.70;99.90;;;;;;5038259;28;20383;-80
2022/05/14 03:24:25;;;;;;;19.13;5.50;;;10.60;99.90;;;;;;5029148;28;20071;-80
2022/05/14 03:26:52;;;;;;;21.67;6.40;;;10.70;99.90;;;;;;5050325;28;20048;-80
2022/05/14 03:29:18;;;;;;;23.57;6.83;;;10.60;99.90;;;;;;5062218;28;20059;-84
2022/05/14 03:31:47;;;;;;;26.47;7.63;;;10.60;99.90;;;;;;5062110;28;20040;-80
2022/05/14 03:34:13;;;;;;;20.33;7.30;;;10.60;99.90;;;;;;5058641;28;20033;-79
2022/05/14 03:36:40;;;;;;;23.93;7.80;;;10.60;99.90;;;;;;5061259;28;20103;-80
2022/05/14 03:39:07;;;;;;;25.93;8.13;;;10.60;99.90;;;;;;5049127;28;20041;-80
2022/05/14 03:41:33;;;;;;;22.80;8.07;;;10.60;99.90;;;;;;5060728;28;20544;-80
2022/05/14 03:44:02;;;;;;;29.60;7.67;;;10.50;99.90;;;;;;5046597;28;20028;-80
2022/05/14 03:46:28;;;;;;;17.97;7.37;;;10.60;99.90;;;;;;5054898;28;20159;-80
2022/05/14 03:48:54;;;;;;;22.20;6.37;;;10.60;99.90;;;;;;5042620;28;20040;-80
2022/05/14 03:51:20;;;;;;;29.60;7.43;;;10.50;99.90;;;;;;5058490;28;20040;-80
2022/05/14 03:53:47;;;;;;;28.60;8.50;;;10.50;99.90;;;;;;5059301;28;20045;-80
2022/05/14 03:56:13;;;;;;;21.87;6.63;;;10.50;99.90;;;;;;5048299;28;20045;-80
2022/05/14 03:58:39;;;;;;;23.00;6.43;;;10.50;99.90;;;;;;5049655;28;20052;-84
2022/05/14 04:01:06;;;;;;;19.33;6.57;;;10.50;99.90;;;;;;5040986;28;20130;-80
2022/05/14 04:03:33;;;;;;;23.13;7.10;;;10.40;99.90;;;;;;5063482;28;20076;-79
2022/05/14 04:06:00;;;;;;;25.63;9.13;;;10.40;99.90;;;;;;5067585;28;20139;-80
2022/05/14 04:08:26;;;;;;;25.73;8.50;;;10.30;99.90;;;;;;5042218;28;20644;-80
2022/05/14 04:10:52;;;;;;;25.67;8.23;;;10.40;99.90;;;;;;5059355;28;20051;-80
2022/05/14 04:13:18;;;;;;;26.27;8.23;;;10.40;99.90;;;;;;5040251;28;20037;-80
2022/05/14 04:15:43;;;;;;;32.53;9.33;;;10.40;99.90;;;;;;5059957;28;20049;-80
2022/05/14 04:18:11;;;;;;;24.23;7.50;;;10.40;99.90;;;;;;5059151;28;20048;-80
2022/05/14 04:20:37;;;;;;;26.77;7.73;;;10.40;99.90;;;;;;5035153;28;20403;-80
2022/05/14 04:23:04;;;;;;;19.77;7.13;;;10.50;99.90;;;;;;5040430;28;20044;-80
2022/05/14 04:25:30;;;;;;;34.70;8.93;;;10.40;99.90;;;;;;5065318;28;20063;-80
2022/05/14 04:27:56;;;;;;;29.80;8.97;;;10.40;99.90;;;;;;5066173;28;20048;-82
2022/05/14 04:30:22;;;;;;;29.90;9.00;;;10.40;99.90;;;;;;5030933;28;20505;-79
2022/05/14 04:32:48;;;;;;;39.47;9.40;;;10.40;99.90;;;;;;5065284;28;20078;-81
2022/05/14 04:35:16;;;;;;;32.37;10.27;;;10.40;99.90;;;;;;5039888;28;20044;-79
2022/05/14 04:37:44;;;;;;;35.77;10.50;;;10.40;99.90;;;;;;5042499;28;20076;-81
2022/05/14 04:40:12;;;;;;;28.67;10.23;;;10.50;99.90;;;;;;5035696;28;20067;-79
2022/05/14 04:42:38;;;;;;;24.63;9.57;;;10.50;99.90;;;;;;5040767;28;20414;-80
2022/05/14 04:45:08;;;;;;;30.13;9.80;;;10.50;99.90;;;;;;5041988;28;20036;-80
2022/05/14 04:47:34;;;;;;;29.20;11.00;;;10.60;99.90;;;;;;5049867;28;20032;-83
2022/05/14 04:50:00;;;;;;;28.60;11.17;;;10.70;99.90;;;;;;5036380;28;20040;-82
2022/05/14 04:52:27;;;;;;;30.67;9.97;;;10.70;99.90;;;;;;5039564;28;20041;-81
2022/05/14 04:54:57;;;;;;;28.20;10.07;;;10.80;99.90;;;;;;5062754;28;20041;-81
2022/05/14 04:57:24;;;;;;;31.90;10.70;;;10.80;99.90;;;;;;5056353;28;20417;-81
2022/05/14 04:59:50;;;;;;;31.17;10.10;;;10.80;99.90;;;;;;5046424;28;20044;-80
2022/05/14 05:05:00;;;;;;;36.92;11.43;;;10.90;99.90;;;;;;5040890;28;20040;-80
2022/05/14 05:07:27;;;;;;;28.67;10.50;;;10.90;99.90;;;;;;5058222;28;20490;-82
2022/05/14 05:09:53;;;;;;;36.20;10.80;;;11.00;99.90;;;;;;5044114;28;20051;-79
2022/05/14 05:12:19;;;;;;;29.70;10.60;;;11.00;99.90;;;;;;5047102;28;20468;-80
2022/05/14 05:14:45;;;;;;;27.43;11.60;;;11.10;99.90;;;;;;5053219;28;20118;-79
2022/05/14 05:17:11;;;;;;;28.80;10.90;;;11.10;99.90;;;;;;5044710;28;20068;-84
2022/05/14 05:19:38;;;;;;;37.77;11.43;;;11.20;99.90;;;;;;5038197;28;20032;-80
2022/05/14 05:22:05;;;;;;;33.93;11.87;;;11.20;99.90;;;;;;5046334;28;20486;-80
2022/05/14 05:24:32;;;;;;;38.83;11.90;;;11.30;99.90;;;;;;5058771;28;20029;-80
2022/05/14 05:26:58;;;;;;;31.60;11.67;;;11.40;99.90;;;;;;5049587;28;20074;-81
2022/05/14 05:29:23;;;;;;;36.93;12.67;;;11.50;99.90;;;;;;5043003;28;20044;-80
2022/05/14 05:31:49;;;;;;;29.43;11.20;;;11.50;99.90;;;;;;5048118;28;20568;-80
2022/05/14 05:34:15;;;;;;;35.73;11.10;;;11.60;99.90;;;;;;5036713;28;20045;-81
2022/05/14 05:36:41;;;;;;;33.53;11.63;;;11.70;99.90;;;;;;5042943;28;20048;-81
2022/05/14 05:39:07;;;;;;;30.77;11.20;;;11.70;99.90;;;;;;5045397;28;20043;-80
2022/05/14 05:41:34;;;;;;;37.47;12.77;;;11.80;99.90;;;;;;5043027;28;20071;-79
2022/05/14 05:43:59;;;;;;;30.53;11.93;;;12.00;99.90;;;;;;5041264;28;20039;-80
2022/05/14 05:46:25;;;;;;;36.03;11.53;;;12.10;99.90;;;;;;5055515;28;20042;-80
2022/05/14 05:48:51;;;;;;;38.70;11.67;;;12.20;99.90;;;;;;5040182;28;20044;-81
2022/05/14 05:51:17;;;;;;;36.10;12.10;;;12.20;99.90;;;;;;5056841;28;20520;-80
2022/05/14 05:59:14;;;;;;;38.53;11.70;;;12.60;99.90;;;;;;5044239;28;20047;-80
2022/05/14 06:01:40;;;;;;;41.90;12.30;;;12.70;99.90;;;;;;5042598;28;20375;-80
2022/05/14 06:04:06;;;;;;;27.30;9.90;;;12.80;99.90;;;;;;5028753;28;20044;-80
2022/05/14 06:06:32;;;;;;;40.30;10.97;;;13.00;99.90;;;;;;5076685;28;20052;-80
2022/05/14 06:08:58;;;;;;;38.07;10.93;;;13.10;99.90;;;;;;5042529;28;20513;-79
2022/05/14 06:11:25;;;;;;;36.20;9.90;;;13.20;99.90;;;;;;5058417;28;20048;-80
2022/05/14 06:13:51;;;;;;;37.10;10.27;;;13.20;99.90;;;;;;5050409;28;20506;-81
2022/05/14 06:16:18;;;;;;;38.30;10.20;;;13.30;99.90;;;;;;5028247;28;20113;-80
2022/05/14 06:18:45;;;;;;;39.87;10.50;;;13.50;99.90;;;;;;5045058;28;20045;-79
2022/05/14 06:21:12;;;;;;;31.03;9.17;;;13.50;99.90;;;;;;5059089;28;20464;-80
2022/05/14 06:23:38;;;;;;;30.00;8.77;;;13.60;99.90;;;;;;5042423;28;20418;-79
2022/05/14 06:26:03;;;;;;;34.17;10.20;;;13.70;99.90;;;;;;5062542;28;20036;-79
2022/05/14 06:28:29;;;;;;;36.53;9.60;;;13.80;99.90;;;;;;5045042;28;20055;-78
2022/05/14 06:30:56;;;;;;;36.53;9.70;;;13.90;99.90;;;;;;5059448;28;20051;-79
2022/05/14 06:33:26;;;;;;;29.37;9.17;;;14.00;99.90;;;;;;5050875;28;20057;-82
2022/05/14 06:35:52;;;;;;;37.23;9.60;;;14.10;99.90;;;;;;5043452;28;20048;-83
2022/05/14 06:38:19;;;;;;;37.67;9.53;;;14.10;99.90;;;;;;5054846;28;20040;-79
2022/05/14 06:40:45;;;;;;;34.33;8.23;;;14.20;99.90;;;;;;5038783;28;20067;-81
2022/05/14 06:43:14;;;;;;;34.13;9.50;;;14.40;99.90;;;;;;5033280;28;20246;-83
2022/05/14 06:45:40;;;;;;;33.83;8.77;;;14.50;99.90;;;;;;5040373;28;20044;-80
2022/05/14 06:48:06;;;;;;;32.53;8.40;;;14.60;99.90;;;;;;5056076;28;20059;-81
2022/05/14 06:50:37;;;;;;;26.90;7.83;;;14.80;99.90;;;;;;5057452;28;20123;-80
2022/05/14 06:53:04;;;;;;;27.63;8.60;;;14.80;99.90;;;;;;5061418;28;20043;-82
2022/05/14 06:55:36;;;;;;;32.43;8.57;;;14.90;99.90;;;;;;5059179;28;20050;-79
2022/05/14 06:58:02;;;;;;;27.17;7.70;;;15.00;99.90;;;;;;5060231;28;20517;-81
2022/05/14 07:00:28;;;;;;;31.70;8.30;;;15.00;99.90;;;;;;5047077;28;20472;-79
2022/05/14 07:06:37;;;;;;;29.30;8.00;;;15.10;99.90;;;;;;5060429;28;20067;-80
2022/05/14 07:08:26;;;;;;;30.30;6.70;;;15.30;99.90;;;;;;5056260;28;20048;-79
2022/05/14 07:10:51;;;;;;;32.73;7.73;;;15.30;99.90;;;;;;5042473;28;20460;-83
2022/05/14 07:13:17;;;;;;;23.50;6.13;;;15.40;99.90;;;;;;5058577;28;20044;-78
2022/05/14 07:15:43;;;;;;;28.37;6.30;;;15.40;99.90;;;;;;5033837;28;20052;-79
2022/05/14 07:18:08;;;;;;;24.80;5.50;;;15.50;99.90;;;;;;5037265;28;20047;-79
2022/05/14 07:20:35;;;;;;;33.07;6.63;;;15.50;99.90;;;;;;5057106;28;21838;-78
2022/05/14 07:23:03;;;;;;;28.73;6.03;;;15.50;99.90;;;;;;5064681;28;20493;-80
2022/05/14 07:25:28;;;;;;;32.27;6.17;;;15.50;99.90;;;;;;5051774;28;20075;-80
2022/05/14 07:27:54;;;;;;;22.47;4.90;;;15.60;99.90;;;;;;5055181;28;20064;-79
2022/05/14 07:30:21;;;;;;;24.53;5.00;;;15.60;99.90;;;;;;5056827;28;20295;-79
2022/05/14 07:32:47;;;;;;;24.47;4.97;;;15.70;99.90;;;;;;5066702;28;20048;-80
2022/05/14 07:35:13;;;;;;;30.50;6.13;;;15.70;99.90;;;;;;5022778;28;20146;-78
2022/05/14 07:37:42;;;;;;;25.63;6.17;;;15.70;99.90;;;;;;5057555;28;20232;-79
2022/05/14 07:40:17;;;;;;;22.30;6.03;;;15.80;99.90;;;;;;5034640;28;20087;-80
2022/05/14 07:42:49;;;;;;;28.70;6.30;;;15.90;99.90;;;;;;5036638;28;20460;-81
2022/05/14 07:45:19;;;;;;;28.63;6.57;;;16.00;99.90;;;;;;5034164;28;20490;-79
2022/05/14 07:47:46;;;;;;;25.23;5.80;;;16.10;99.90;;;;;;5064190;28;20491;-77
2022/05/14 07:50:13;;;;;;;28.43;6.00;;;16.10;99.90;;;;;;5035572;28;20131;-79
2022/05/14 07:52:40;;;;;;;33.17;6.27;;;16.10;99.90;;;;;;5058902;28;20418;-79
2022/05/14 07:55:07;;;;;;;32.80;6.33;;;16.20;99.90;;;;;;5042058;28;20056;-79
2022/05/14 07:57:34;;;;;;;25.83;5.93;;;16.30;99.90;;;;;;5044374;28;20049;-81
2022/05/14 08:00:01;;;;;;;28.60;6.27;;;16.40;99.90;;;;;;5066937;28;20048;-78
2022/05/14 08:02:31;;;;;;;26.97;5.83;;;16.40;99.90;;;;;;5047234;28;20040;-80
2022/05/14 08:04:57;;;;;;;24.13;5.67;;;16.50;99.90;;;;;;5061125;28;20394;-79
2022/05/14 08:07:23;;;;;;;27.27;5.83;;;16.50;99.90;;;;;;5035210;28;20036;-81
2022/05/14 08:09:48;;;;;;;32.83;6.60;;;16.50;99.90;;;;;;5039330;28;20486;-79
2022/05/14 08:12:14;;;;;;;24.70;5.33;;;16.60;99.90;;;;;;5058100;28;20510;-79
2022/05/14 08:14:42;;;;;;;21.33;5.57;;;16.70;99.90;;;;;;5067978;28;20411;-80
2022/05/14 08:17:09;;;;;;;29.13;6.33;;;16.80;99.90;;;;;;5055077;28;20052;-80
2022/05/14 08:19:35;;;;;;;29.23;5.60;;;16.90;99.90;;;;;;5052527;28;20048;-81
2022/05/14 08:24:44;;;;;;;;;;;17.10;99.90;;;;;;5059336;28;20036;-80
2022/05/14 08:27:11;;;;;;;24.90;6.20;;;17.20;99.90;;;;;;5047989;28;20289;-82
2022/05/14 08:29:38;;;;;;;22.47;5.73;;;17.30;99.90;;;;;;5051443;28;20556;-80
2022/05/14 08:32:06;;;;;;;27.67;6.40;;;17.50;99.90;;;;;;5064892;28;20055;-80
2022/05/14 08:34:33;;;;;;;30.00;5.97;;;17.60;99.90;;;;;;5055243;28;20540;-80
2022/05/14 08:36:59;;;;;;;24.77;5.47;;;17.70;99.90;;;;;;5065395;28;20067;-77
2022/05/14 08:39:27;;;;;;;26.13;6.07;;;17.90;99.90;;;;;;5056627;28;20121;-80
2022/05/14 08:41:54;;;;;;;23.00;5.73;;;18.10;99.90;;;;;;5055996;28;20051;-80
2022/05/14 08:44:25;;;;;;;24.30;5.70;;;18.10;99.90;;;;;;5023350;28;20037;-81
2022/05/14 08:46:54;;;;;;;26.23;5.73;;;18.20;99.90;;;;;;5032011;28;20041;-78
2022/05/14 08:49:31;;;;;;;22.40;6.00;;;18.40;99.90;;;;;;5054736;28;20048;-79
2022/05/14 08:51:59;;;;;;;26.77;5.40;;;18.60;99.90;;;;;;5077041;28;20124;-79
2022/05/14 08:54:26;;;;;;;28.50;5.80;;;18.70;99.90;;;;;;5058639;28;20036;-79
2022/05/14 08:57:00;;;;;;;20.03;5.30;;;18.90;99.90;;;;;;5051554;28;20044;-79
2022/05/14 08:59:47;;;;;;;32.80;6.53;;;19.00;99.90;;;;;;5048060;28;20040;-79
2022/05/14 09:02:16;;;;;;;26.50;5.63;;;19.00;99.90;;;;;;5040233;28;20126;-80
2022/05/14 09:04:43;;;;;;;23.97;5.63;;;19.20;99.90;;;;;;5054688;28;20395;-79
2022/05/14 09:07:10;;;;;;;24.20;5.97;;;19.50;99.90;;;;;;5054436;28;20047;-81
2022/05/14 09:09:45;;;;;;;25.57;5.57;;;19.50;99.70;;;;;;5057696;28;20502;-80
2022/05/14 09:12:16;;;;;;;28.93;5.50;;;19.30;99.20;;;;;;5039493;28;20044;-82
2022/05/14 09:14:44;;;;;;;21.57;5.13;;;19.20;99.90;;;;;;5067196;28;21721;-80
2022/05/14 09:17:13;;;;;;;25.10;5.30;;;19.30;99.90;;;;;;5038713;28;20094;-79
2022/05/14 09:19:41;;;;;;;26.97;6.53;;;19.20;99.90;;;;;;5055518;28;20530;-79
2022/05/14 09:22:17;;;;;;;22.67;5.70;;;19.50;99.90;;;;;;5053134;28;20132;-79
2022/05/14 09:24:46;;;;;;;21.47;5.47;;;19.80;99.90;;;;;;5055878;28;20056;-80
2022/05/14 09:27:20;;;;;;;52.33;6.27;;;20.20;99.90;;;;;;5054311;28;20055;-78
2022/05/14 09:29:50;;;;;;;21.97;5.77;;;20.40;98.20;;;;;;5052093;28;20040;-79
2022/05/14 09:32:29;;;;;;;24.63;6.00;;;20.30;97.10;;;;;;5060618;28;20147;-78
2022/05/14 09:35:04;;;;;;;24.30;5.93;;;20.10;97.40;;;;;;5041198;28;20044;-79
2022/05/14 09:37:31;;;;;;;24.93;5.67;;;20.10;98.50;;;;;;5058841;28;20047;-79
2022/05/14 09:39:58;;;;;;;19.50;5.70;;;20.30;98.80;;;;;;5059482;28;20040;-79
2022/05/14 09:42:29;;;;;;;28.30;6.60;;;20.60;99.60;;;;;;5055758;28;20448;-80
2022/05/14 09:44:57;;;;;;;25.00;5.23;;;21.10;98.30;;;;;;5046489;28;20151;-80
2022/05/14 09:47:26;;;;;;;26.00;5.97;;;21.70;98.00;;;;;;5054557;28;20048;-83
2022/05/14 09:49:58;;;;;;;20.30;5.03;;;21.90;95.20;;;;;;5048816;28;20036;-79
2022/05/14 09:52:26;;;;;;;17.50;4.67;;;21.60;93.80;;;;;;5048044;28;20422;-79
2022/05/14 09:54:53;;;;;;;22.97;5.03;;;21.30;94.10;;;;;;5046641;28;20036;-77
2022/05/14 09:57:43;;;;;;;25.10;5.47;;;21.00;94.70;;;;;;5035131;28;20048;-80
2022/05/14 10:00:12;;;;;;;23.37;5.47;;;20.70;94.90;;;;;;5060616;28;20048;-78
2022/05/14 10:02:53;;;;;;;22.90;5.43;;;20.80;96.40;;;;;;5049120;28;20049;-80
2022/05/14 10:05:32;;;;;;;21.30;5.27;;;21.60;96.40;;;;;;5054227;28;20044;-78
2022/05/14 10:08:10;;;;;;;27.57;5.93;;;22.20;95.90;;;;;;5029553;28;20062;-81
2022/05/14 10:10:47;;;;;;;21.50;5.17;;;22.50;93.00;;;;;;5054050;28;20063;-78
2022/05/14 10:13:20;;;;;;;27.10;5.93;;;22.50;92.90;;;;;;5037683;28;20049;-77
2022/05/14 10:15:56;;;;;;;33.85;5.50;;;22.20;91.90;;;;;;5032224;28;20147;-79
2022/05/14 10:18:36;;;;;;;26.00;5.90;;;21.80;92.40;;;;;;5049721;28;20873;-80
2022/05/14 10:21:06;;;;;;;21.17;5.10;;;21.70;93.00;;;;;;5036721;28;20052;-80
2022/05/14 10:26:58;;;;;;;25.20;5.37;;;21.10;93.00;;;;;;5055850;28;20041;-77
2022/05/14 10:29:38;;;;;;;21.30;5.57;;;21.00;93.20;;;;;;5034359;28;20051;-80
2022/05/14 10:32:05;;;;;;;25.43;5.13;;;20.90;94.70;;;;;;5034048;28;20714;-79
2022/05/14 10:34:43;;;;;;;23.93;5.67;;;21.20;94.70;;;;;;5055068;28;20040;-81
2022/05/14 10:37:19;;;;;;;20.67;5.60;;;21.90;93.90;;;;;;5054280;28;20498;-79
2022/05/14 10:39:55;;;;;;;19.90;5.00;;;22.00;94.10;;;;;;5043494;28;20056;-80
2022/05/14 10:42:37;;;;;;;18.50;5.07;;;22.50;93.10;;;;;;5049805;28;20040;-79
2022/05/14 10:45:08;;;;;;;27.37;5.80;;;23.00;91.70;;;;;;5054115;28;20490;-78
2022/05/14 10:47:38;;;;;;;18.83;5.80;;;23.80;91.10;;;;;;5030533;28;20052;-81
2022/05/14 10:50:09;;;;;;;19.37;5.40;;;24.20;86.70;;;;;;5033592;28;20049;-77
2022/05/14 10:52:38;;;;;;;19.87;5.60;;;23.90;84.80;;;;;;5059140;28;20127;-80
2022/05/14 10:55:14;;;;;;;52.70;7.10;;;23.20;83.50;;;;;;5052477;28;20045;-80
2022/05/14 10:57:45;;;;;;;19.57;5.60;;;22.60;86.10;;;;;;5039045;28;20040;-79
2022/05/14 11:00:21;;;;;;;24.57;5.67;;;22.10;87.80;;;;;;5058740;28;20052;-79
2022/05/14 11:02:57;;;;;;;24.23;5.60;;;21.60;89.60;;;;;;5038079;28;20116;-80
2022/05/14 11:05:29;;;;;;;21.13;5.13;;;21.30;90.30;;;;;;5055955;28;20468;-80
2022/05/14 11:08:05;;;;;;;20.00;5.27;;;21.30;91.00;;;;;;5055617;28;20049;-79
2022/05/14 11:10:34;;;;;;;22.93;5.83;;;21.50;91.70;;;;;;5048154;28;20470;-80
2022/05/14 11:13:12;;;;;;;20.40;4.93;;;21.50;91.20;;;;;;5049867;28;20054;-79
2022/05/14 11:15:39;;;;;;;19.80;5.27;;;21.40;91.60;;;;;;5053242;28;20620;-83
2022/05/14 11:18:07;;;;;;;22.23;5.23;;;21.30;91.60;;;;;;5026821;28;20040;-79
2022/05/14 11:20:33;;;;;;;19.73;5.03;;;21.70;92.30;;;;;;5053827;28;20049;-80
2022/05/14 11:23:05;;;;;;;16.37;5.00;;;22.50;92.70;;;;;;5054673;28;20052;-81
2022/05/14 11:25:32;;;;;;;18.83;5.57;;;23.30;90.30;;;;;;5036250;28;20139;-83
2022/05/14 11:28:01;;;;;;;22.77;6.40;;;23.90;87.60;;;;;;5038096;28;20099;-80
2022/05/14 11:30:40;;;;;;;18.10;5.10;;;24.40;86.00;;;;;;5059448;28;20040;-83
2022/05/14 11:33:19;;;;;;;20.33;5.67;;;24.80;80.50;;;;;;5059499;28;20048;-80
2022/05/14 11:35:47;;;;;;;17.08;5.00;;;25.00;81.20;;;;;;5025005;28;20063;-78
2022/05/14 11:38:29;;;;;;;21.23;5.47;;;25.10;72.70;;;;;;5071861;28;20044;-79
2022/05/14 11:40:56;;;;;;;22.20;5.75;;;24.60;73.10;;;;;;5042575;28;20041;-77
2022/05/14 11:43:27;;;;;;;21.70;5.50;;;24.50;74.50;;;;;;5046472;28;20052;-81
2022/05/14 11:46:06;;;;;;;17.30;4.85;;;24.80;72.70;;;;;;5057032;28;20045;-80
2022/05/14 11:48:41;;;;;;;18.17;4.85;;;24.40;70.10;;;;;;5048524;28;20562;-81
2022/05/14 11:51:15;;;;;;;19.27;4.47;;;23.80;73.00;;;;;;5037466;28;20045;-79
2022/05/14 11:53:45;;;;;;;19.38;6.07;;;24.10;77.80;;;;;;5051120;28;20048;-78
2022/05/14 11:56:18;;;;;;;18.42;4.80;;;24.70;74.70;;;;;;5034653;28;20078;-79
2022/05/14 11:58:50;;;;;;;16.08;4.32;;;24.70;68.90;;;;;;5043289;28;20048;-79
2022/05/14 12:01:21;;;;;;;21.60;5.00;;;24.40;71.90;;;;;;5054573;28;20044;-78
2022/05/14 12:03:49;;;;;;;22.13;5.78;;;24.20;73.20;;;;;;5035984;28;20052;-80
2022/05/14 12:06:34;;;;;;;19.42;5.15;;;24.00;74.20;;;;;;5057635;28;20037;-80
2022/05/14 12:09:11;;;;;;;19.40;5.72;;;23.80;76.10;;;;;;5054393;28;20048;-78
2022/05/14 12:11:47;;;;;;;19.33;4.90;;;23.50;75.30;;;;;;5061599;28;20701;-79
2022/05/14 12:14:16;;;;;;;20.40;5.38;;;23.20;76.50;;;;;;5049342;28;20140;-80
2022/05/14 12:16:51;;;;;;;18.05;5.00;;;23.00;79.80;;;;;;5042056;28;20048;-78
2022/05/14 12:19:19;;;;;;;22.73;5.50;;;23.60;81.70;;;;;;5054156;28;20044;-79
2022/05/14 12:21:51;;;;;;;17.42;5.07;;;24.30;79.60;;;;;;5058808;28;20051;-81
2022/05/14 12:24:20;;;;;;;19.55;5.03;;;25.00;75.50;;;;;;5052127;28;20060;-79
2022/05/14 12:26:46;;;;;;;17.00;4.90;;;25.70;73.10;;;;;;5055476;28;20057;-78
2022/05/14 12:29:14;;;;;;;18.10;4.82;;;26.10;71.00;;;;;;5052191;28;20417;-80
2022/05/14 12:34:36;;;;;;;15.73;4.72;;;25.30;63.00;;;;;;5057188;28;20131;-78
2022/05/14 12:37:04;;;;;;;19.17;5.43;;;24.30;64.70;;;;;;5060812;28;20055;-77
2022/05/14 12:39:31;;;;;;;17.20;4.88;;;23.70;66.70;;;;;;5031690;28;20068;-79
2022/05/14 12:42:00;;;;;;;26.42;5.15;;;23.30;70.30;;;;;;5048927;28;20041;-79
2022/05/14 12:44:28;;;;;;;18.33;4.85;;;23.10;70.80;;;;;;5055742;28;20036;-78
2022/05/14 12:46:56;;;;;;;20.98;5.53;;;23.00;71.90;;;;;;5051394;28;20376;-79
2022/05/14 12:49:24;;;;;;;19.73;4.97;;;22.90;72.20;;;;;;5047480;28;20052;-80
2022/05/14 12:51:54;;;;;;;15.88;4.45;;;22.80;73.20;;;;;;5060068;28;20501;-80
2022/05/14 12:54:22;;;;;;;18.33;4.80;;;22.80;71.90;;;;;;5064029;28;20059;-78
2022/05/14 12:56:50;;;;;;;16.17;4.85;;;22.90;71.20;;;;;;5043875;28;20094;-81
2022/05/14 12:59:16;;;;;;;22.48;5.07;;;22.70;71.30;;;;;;5053300;28;20425;-78
2022/05/14 13:01:41;;;;;;;20.05;5.45;;;22.60;72.20;;;;;;5054202;28;20041;-78
2022/05/14 13:04:09;;;;;;;17.67;5.10;;;22.40;73.20;;;;;;5057426;28;20051;-79
2022/05/14 13:06:41;;;;;;;22.30;5.17;;;22.30;73.50;;;;;;5041443;28;20036;-78